createdAt,value
2018-12-18T00:01:43.797Z,47.07
2018-12-18T00:04:12.006Z,46.83
2018-12-18T00:06:40.252Z,51.80
2018-12-18T00:09:08.629Z,47.07
2018-12-18T00:11:36.946Z,46.87
2018-12-18T00:14:05.181Z,51.20
2018-12-18T00:16:33.408Z,44.13
2018-12-18T00:19:01.642Z,42.77
2018-12-18T00:21:29.883Z,46.23
2018-12-18T00:23:58.107Z,46.00
2018-12-18T00:26:26.342Z,48.33
2018-12-18T00:28:54.587Z,48.80
2018-12-18T00:31:22.962Z,40.13
2018-12-18T00:33:51.155Z,42.17
2018-12-18T00:36:19.362Z,38.70
2018-12-18T00:38:47.594Z,37.97
2018-12-18T00:41:15.811Z,41.70
2018-12-18T00:43:44.105Z,41.20
2018-12-18T00:46:12.374Z,43.10
2018-12-18T00:48:40.613Z,41.77
2018-12-18T00:51:08.829Z,38.67
2018-12-18T00:53:37.285Z,37.50
2018-12-18T00:56:05.521Z,36.13
2018-12-18T00:58:33.762Z,39.60
2018-12-18T01:01:01.963Z,36.57
2018-12-18T01:03:30.194Z,37.30
2018-12-18T01:05:58.423Z,38.77
2018-12-18T01:08:26.672Z,36.60
2018-12-18T01:10:54.886Z,41.40
2018-12-18T01:13:23.118Z,35.63
2018-12-18T01:15:51.338Z,34.50
2018-12-18T01:18:19.571Z,38.83
2018-12-18T01:20:47.873Z,36.60
2018-12-18T01:23:16.226Z,40.53
2018-12-18T01:25:44.442Z,41.70
2018-12-18T01:28:12.718Z,40.40
2018-12-18T01:30:40.981Z,37.40
2018-12-18T01:33:09.238Z,35.73
2018-12-18T01:35:37.457Z,32.43
2018-12-18T01:38:05.678Z,36.67
2018-12-18T01:40:33.907Z,35.53
2018-12-18T01:43:02.136Z,34.77
2018-12-18T01:45:30.354Z,35.27
2018-12-18T01:47:58.587Z,38.93
2018-12-18T01:50:26.799Z,39.83
2018-12-18T01:52:55.018Z,37.83
2018-12-18T01:55:23.222Z,37.07
2018-12-18T01:57:51.414Z,37.30
2018-12-18T02:00:19.665Z,34.97
2018-12-18T02:02:47.886Z,35.47
2018-12-18T02:05:16.057Z,32.07
2018-12-18T02:07:44.296Z,37.03
2018-12-18T02:10:12.463Z,34.70
2018-12-18T02:12:40.759Z,39.33
2018-12-18T02:15:09.097Z,39.03
2018-12-18T02:17:37.289Z,37.43
2018-12-18T02:20:06.934Z,37.80
2018-12-18T02:22:35.340Z,40.30
2018-12-18T02:25:04.815Z,34.60
2018-12-18T02:27:33.138Z,35.13
2018-12-18T02:30:01.548Z,35.97
2018-12-18T02:32:29.739Z,32.70
2018-12-18T02:34:57.963Z,32.50
2018-12-18T02:37:26.578Z,36.10
2018-12-18T02:39:54.999Z,41.27
2018-12-18T02:42:23.178Z,35.73
2018-12-18T02:44:51.390Z,33.73
2018-12-18T02:47:19.587Z,36.67
2018-12-18T02:49:47.802Z,34.23
2018-12-18T02:52:15.985Z,38.90
2018-12-18T02:54:44.212Z,32.90
2018-12-18T02:57:12.475Z,31.67
2018-12-18T02:59:40.851Z,36.07
2018-12-18T03:02:09.108Z,31.37
2018-12-18T03:04:37.326Z,37.43
2018-12-18T03:07:05.629Z,30.57
2018-12-18T03:09:33.988Z,32.60
2018-12-18T03:12:02.246Z,35.23
2018-12-18T03:14:30.451Z,33.03
2018-12-18T03:16:58.627Z,36.33
2018-12-18T03:19:26.830Z,32.77
2018-12-18T03:21:55.008Z,34.13
2018-12-18T03:24:23.241Z,29.80
2018-12-18T03:26:51.421Z,33.70
2018-12-18T03:29:19.636Z,36.33
2018-12-18T03:31:52.327Z,30.87
2018-12-18T03:34:20.536Z,34.93
2018-12-18T03:36:48.699Z,35.17
2018-12-18T03:39:16.922Z,31.57
2018-12-18T03:41:45.189Z,32.77
2018-12-18T03:44:13.378Z,37.57
2018-12-18T03:46:41.635Z,37.47
2018-12-18T03:49:09.817Z,34.43
2018-12-18T03:51:38.024Z,34.10
2018-12-18T03:54:06.289Z,34.80
2018-12-18T03:56:34.473Z,39.47
2018-12-18T03:59:02.757Z,33.97
2018-12-18T04:01:30.938Z,37.83
2018-12-18T04:03:59.127Z,37.33
2018-12-18T04:06:27.293Z,42.13
2018-12-18T04:08:55.573Z,43.77
2018-12-18T04:11:23.758Z,46.57
2018-12-18T04:13:51.952Z,44.73
2018-12-18T04:16:20.142Z,42.53
2018-12-18T04:18:48.335Z,45.70
2018-12-18T04:21:16.591Z,43.57
2018-12-18T04:23:44.789Z,41.90
2018-12-18T04:26:12.949Z,40.67
2018-12-18T04:28:41.159Z,44.80
2018-12-18T04:31:09.354Z,42.27
2018-12-18T04:33:37.638Z,43.77
2018-12-18T04:36:05.807Z,45.37
2018-12-18T04:38:33.993Z,45.57
2018-12-18T04:41:02.176Z,41.43
2018-12-18T04:43:30.454Z,36.87
2018-12-18T04:45:58.626Z,42.33
2018-12-18T04:48:26.871Z,41.53
2018-12-18T04:50:55.060Z,39.87
2018-12-18T04:53:23.477Z,37.17
2018-12-18T04:55:51.651Z,34.60
2018-12-18T04:58:19.966Z,37.20
2018-12-18T05:00:48.413Z,33.93
2018-12-18T05:03:16.706Z,31.50
2018-12-18T05:05:44.966Z,37.93
2018-12-18T05:08:13.131Z,40.60
2018-12-18T05:10:41.308Z,35.50
2018-12-18T05:13:09.522Z,40.33
2018-12-18T05:15:37.714Z,37.90
2018-12-18T05:18:05.960Z,38.27
2018-12-18T05:20:34.137Z,40.10
2018-12-18T05:23:02.399Z,43.07
2018-12-18T05:25:30.592Z,38.87
2018-12-18T05:27:58.860Z,40.63
2018-12-18T05:30:27.064Z,38.07
2018-12-18T05:32:55.233Z,52.00
2018-12-18T05:35:23.420Z,43.60
2018-12-18T05:37:51.599Z,42.40
2018-12-18T05:40:19.868Z,42.47
2018-12-18T05:42:48.049Z,51.03
2018-12-18T05:45:16.243Z,41.70
2018-12-18T05:47:44.437Z,37.03
2018-12-18T05:50:12.711Z,46.07
2018-12-18T05:52:40.882Z,37.00
2018-12-18T05:55:09.077Z,43.23
2018-12-18T05:57:37.249Z,42.00
2018-12-18T06:00:05.686Z,40.97
2018-12-18T06:02:33.904Z,36.67
2018-12-18T06:05:03.344Z,39.90
2018-12-18T06:07:31.770Z,37.87
2018-12-18T06:10:00.046Z,41.27
2018-12-18T06:12:28.233Z,35.67
2018-12-18T06:14:56.427Z,43.10
2018-12-18T06:17:24.593Z,48.38
2018-12-18T06:19:52.831Z,35.30
2018-12-18T06:22:21.024Z,39.40
2018-12-18T06:24:49.237Z,30.37
2018-12-18T06:27:17.425Z,29.67
2018-12-18T06:29:45.680Z,35.07
2018-12-18T06:32:13.871Z,30.67
2018-12-18T06:34:42.149Z,35.97
2018-12-18T06:37:10.333Z,39.17
2018-12-18T06:39:38.570Z,39.10
2018-12-18T06:42:06.881Z,38.30
2018-12-18T06:44:35.099Z,37.33
2018-12-18T06:47:03.419Z,41.07
2018-12-18T06:49:31.641Z,42.53
2018-12-18T06:51:59.850Z,45.63
2018-12-18T06:54:28.076Z,42.33
2018-12-18T06:56:56.339Z,44.10
2018-12-18T06:59:24.576Z,44.13
2018-12-18T07:01:52.802Z,46.33
2018-12-18T07:04:21.050Z,44.73
2018-12-18T07:06:49.359Z,39.53
2018-12-18T07:09:17.571Z,33.97
2018-12-18T07:11:45.834Z,37.60
2018-12-18T07:14:14.034Z,40.43
2018-12-18T07:16:42.236Z,40.37
2018-12-18T07:19:10.490Z,45.30
2018-12-18T07:21:38.890Z,49.83
2018-12-18T07:24:07.179Z,50.30
2018-12-18T07:26:35.364Z,46.83
2018-12-18T07:29:03.741Z,42.73
2018-12-18T07:31:31.949Z,44.27
2018-12-18T07:34:00.143Z,52.30
2018-12-18T07:36:28.338Z,46.97
2018-12-18T07:38:56.563Z,41.83
2018-12-18T07:41:24.753Z,39.77
2018-12-18T07:43:52.958Z,45.30
2018-12-18T07:46:21.162Z,40.27
2018-12-18T07:48:49.381Z,42.80
2018-12-18T07:51:17.587Z,46.60
2018-12-18T07:53:45.787Z,42.20
2018-12-18T07:56:14.003Z,50.07
2018-12-18T07:58:42.191Z,45.67
2018-12-18T08:01:10.413Z,45.50
2018-12-18T08:03:38.616Z,41.13
2018-12-18T08:06:06.987Z,57.57
2018-12-18T08:08:35.157Z,48.13
2018-12-18T08:11:03.442Z,51.13
2018-12-18T08:13:31.639Z,59.67
2018-12-18T08:15:59.865Z,43.03
2018-12-18T08:18:28.053Z,44.53
2018-12-18T08:20:56.350Z,42.00
2018-12-18T08:23:24.549Z,54.23
2018-12-18T08:25:52.768Z,45.73
2018-12-18T08:28:20.943Z,45.67
2018-12-18T08:30:49.149Z,44.53
2018-12-18T08:33:17.332Z,40.60
2018-12-18T08:35:46.010Z,43.93
2018-12-18T08:38:14.205Z,48.40
2018-12-18T08:40:42.405Z,43.33
2018-12-18T08:43:10.686Z,40.73
2018-12-18T08:45:38.892Z,43.67
2018-12-18T08:48:07.102Z,45.47
2018-12-18T08:50:35.325Z,45.50
2018-12-18T08:53:03.769Z,44.90
2018-12-18T08:55:32.048Z,35.87
2018-12-18T08:58:00.382Z,39.60
2018-12-18T09:00:28.585Z,33.33
2018-12-18T09:02:56.767Z,34.77
2018-12-18T09:05:25.145Z,37.53
2018-12-18T09:07:53.444Z,34.33
2018-12-18T09:10:21.733Z,38.87
2018-12-18T09:12:49.981Z,36.93
2018-12-18T09:15:23.651Z,34.67
2018-12-18T09:17:51.879Z,33.70
2018-12-18T09:20:20.077Z,31.57
2018-12-18T09:22:48.244Z,39.17
2018-12-18T09:25:16.476Z,38.10
2018-12-18T09:27:44.699Z,37.33
2018-12-18T09:30:12.902Z,30.77
2018-12-18T09:32:41.104Z,35.50
2018-12-18T09:35:09.318Z,29.93
2018-12-18T09:37:37.508Z,28.40
2018-12-18T09:40:07.696Z,26.13
2018-12-18T09:42:41.183Z,28.93
2018-12-18T09:45:09.459Z,28.23
2018-12-18T09:47:37.653Z,29.07
2018-12-18T09:50:06.872Z,27.83
2018-12-18T09:52:35.064Z,25.93
2018-12-18T09:55:03.449Z,26.70
2018-12-18T09:57:37.190Z,24.80
2018-12-18T10:00:07.679Z,26.37
2018-12-18T10:02:35.930Z,25.87
2018-12-18T10:05:04.462Z,24.03
2018-12-18T10:07:32.645Z,23.60
2018-12-18T10:10:00.870Z,22.60
2018-12-18T10:12:34.429Z,26.20
2018-12-18T10:15:02.630Z,23.80
2018-12-18T10:17:30.820Z,25.07
2018-12-18T10:19:59.021Z,21.97
2018-12-18T10:22:27.213Z,26.63
2018-12-18T10:24:55.442Z,23.37
2018-12-18T10:27:23.643Z,20.77
2018-12-18T10:29:52.001Z,20.70
2018-12-18T10:32:20.346Z,18.80
2018-12-18T10:34:48.517Z,17.93
2018-12-18T10:37:16.717Z,18.47
2018-12-18T10:39:44.913Z,19.93
2018-12-18T10:42:13.178Z,19.07
2018-12-18T10:44:41.475Z,20.27
2018-12-18T10:47:09.669Z,18.17
2018-12-18T10:49:37.887Z,15.40
2018-12-18T10:52:06.154Z,13.03
2018-12-18T10:54:34.479Z,17.37
2018-12-18T10:57:02.658Z,16.33
2018-12-18T10:59:30.838Z,13.73
2018-12-18T11:02:01.112Z,17.23
2018-12-18T11:04:29.366Z,12.57
2018-12-18T11:06:57.605Z,12.67
2018-12-18T11:09:25.786Z,11.73
2018-12-18T11:11:54.056Z,11.90
2018-12-18T11:14:22.338Z,11.10
2018-12-18T11:16:50.634Z,9.87
2018-12-18T11:19:18.810Z,14.20
2018-12-18T11:21:47.004Z,8.80
2018-12-18T11:24:15.168Z,13.57
2018-12-18T11:26:43.366Z,10.27
2018-12-18T11:29:11.570Z,13.23
2018-12-18T11:31:39.766Z,14.30
2018-12-18T11:34:08.124Z,16.23
2018-12-18T11:36:36.403Z,15.60
2018-12-18T11:39:07.005Z,14.93
2018-12-18T11:41:35.450Z,14.10
2018-12-18T11:44:03.823Z,10.37
2018-12-18T11:46:32.091Z,9.27
2018-12-18T11:49:00.255Z,11.23
2018-12-18T11:51:28.450Z,12.20
2018-12-18T11:53:56.618Z,8.50
2018-12-18T11:56:24.806Z,9.90
2018-12-18T11:58:52.971Z,5.87
2018-12-18T12:01:21.255Z,9.13
2018-12-18T12:03:49.437Z,5.03
2018-12-18T12:06:22.960Z,7.10
2018-12-18T12:08:47.820Z,6.87
2018-12-18T12:11:16.010Z,8.23
2018-12-18T12:13:44.194Z,7.77
2018-12-18T12:16:12.464Z,6.73
2018-12-18T12:18:40.625Z,6.33
2018-12-18T12:21:08.797Z,7.27
2018-12-18T12:23:36.961Z,5.27
2018-12-18T12:26:10.581Z,4.93
2018-12-18T12:28:38.801Z,2.97
2018-12-18T12:31:06.970Z,3.57
2018-12-18T12:33:35.130Z,3.97
2018-12-18T12:36:03.509Z,7.47
2018-12-18T12:38:31.678Z,6.43
2018-12-18T12:40:59.899Z,6.67
2018-12-18T12:43:28.107Z,5.63
2018-12-18T12:45:56.418Z,6.20
2018-12-18T12:48:28.861Z,6.90
2018-12-18T12:50:57.036Z,4.57
2018-12-18T12:53:25.261Z,5.73
2018-12-18T12:55:53.531Z,6.23
2018-12-18T12:58:21.727Z,7.50
2018-12-18T13:00:49.891Z,7.83
2018-12-18T13:03:18.156Z,7.53
2018-12-18T13:05:46.411Z,10.23
2018-12-18T13:08:14.697Z,9.33
2018-12-18T13:10:42.873Z,12.07
2018-12-18T13:13:11.054Z,7.87
2018-12-18T13:15:39.230Z,6.57
2018-12-18T13:18:07.439Z,8.30
2018-12-18T13:20:35.617Z,12.13
2018-12-18T13:23:03.895Z,10.67
2018-12-18T13:25:32.095Z,8.03
2018-12-18T13:28:00.295Z,9.60
2018-12-18T13:30:28.509Z,10.33
2018-12-18T13:32:56.710Z,11.53
2018-12-18T13:35:24.878Z,10.57
2018-12-18T13:37:53.059Z,10.73
2018-12-18T13:40:21.229Z,15.13
2018-12-18T13:42:49.462Z,7.90
2018-12-18T13:45:17.626Z,8.30
2018-12-18T13:47:45.829Z,7.47
2018-12-18T13:50:14.014Z,7.67
2018-12-18T13:52:42.354Z,6.63
2018-12-18T13:55:10.540Z,7.43
2018-12-18T13:57:38.754Z,6.13
2018-12-18T14:00:07.074Z,6.40
2018-12-18T14:02:35.249Z,6.43
2018-12-18T14:05:03.588Z,6.93
2018-12-18T14:07:31.793Z,7.33
2018-12-18T14:10:00.121Z,8.93
2018-12-18T14:12:28.304Z,10.90
2018-12-18T14:14:56.458Z,6.50
2018-12-18T14:17:24.672Z,7.87
2018-12-18T14:19:52.926Z,5.57
2018-12-18T14:22:21.113Z,5.90
2018-12-18T14:24:49.261Z,5.67
2018-12-18T14:27:17.424Z,6.07
2018-12-18T14:29:45.637Z,9.97
2018-12-18T14:32:13.805Z,7.67
2018-12-18T14:34:41.957Z,5.70
2018-12-18T14:37:10.140Z,6.73
2018-12-18T14:39:45.937Z,9.63
2018-12-18T14:42:14.139Z,10.33
2018-12-18T14:44:42.293Z,7.67
2018-12-18T14:47:10.470Z,11.57
2018-12-18T14:49:38.717Z,8.93
2018-12-18T14:52:06.891Z,9.93
2018-12-18T14:54:35.342Z,10.57
2018-12-18T14:57:03.602Z,8.67
2018-12-18T14:59:31.757Z,10.53
2018-12-18T15:01:59.939Z,11.93
2018-12-18T15:04:28.094Z,10.70
2018-12-18T15:07:02.634Z,8.83
2018-12-18T15:09:26.534Z,11.27
2018-12-18T15:11:54.741Z,10.63
2018-12-18T15:14:22.951Z,12.63
2018-12-18T15:16:51.093Z,13.70
2018-12-18T15:19:19.261Z,12.27
2018-12-18T15:21:47.426Z,13.07
2018-12-18T15:24:15.687Z,13.93
2018-12-18T15:26:43.838Z,12.93
2018-12-18T15:29:12.109Z,14.80
2018-12-18T15:31:40.259Z,15.20
2018-12-18T15:34:08.516Z,14.50
2018-12-18T15:36:36.751Z,13.50
2018-12-18T15:39:06.746Z,18.43
2018-12-18T15:41:35.762Z,18.67
2018-12-18T15:44:04.644Z,15.37
2018-12-18T15:46:32.801Z,16.73
2018-12-18T15:49:00.969Z,17.33
2018-12-18T15:51:29.125Z,23.40
2018-12-18T15:53:57.305Z,17.37
2018-12-18T15:56:25.461Z,19.03
2018-12-18T15:58:53.649Z,19.80
2018-12-18T16:01:21.809Z,17.37
2018-12-18T16:03:49.981Z,21.83
2018-12-18T16:06:18.358Z,19.80
2018-12-18T16:08:46.524Z,21.60
2018-12-18T16:11:14.681Z,19.43
2018-12-18T16:13:42.862Z,23.47
2018-12-18T16:16:11.096Z,20.27
2018-12-18T16:18:39.271Z,25.00
2018-12-18T16:21:07.685Z,24.23
2018-12-18T16:23:35.862Z,20.10
2018-12-18T16:26:04.113Z,23.70
2018-12-18T16:28:32.305Z,21.43
2018-12-18T16:31:00.566Z,23.20
2018-12-18T16:33:28.696Z,26.00
2018-12-18T16:35:56.820Z,26.40
2018-12-18T16:38:24.951Z,21.33
2018-12-18T16:40:53.171Z,23.67
2018-12-18T16:43:21.340Z,28.80
2018-12-18T16:45:49.760Z,28.97
2018-12-18T16:48:17.908Z,21.83
2018-12-18T16:50:46.065Z,21.23
2018-12-18T16:53:14.225Z,25.13
2018-12-18T16:55:42.456Z,22.60
2018-12-18T16:58:10.778Z,19.27
2018-12-18T17:00:38.904Z,19.67
2018-12-18T17:03:07.064Z,21.27
2018-12-18T17:05:35.190Z,20.57
2018-12-18T17:08:03.372Z,20.30
2018-12-18T17:10:31.568Z,19.83
2018-12-18T17:13:00.181Z,20.40
2018-12-18T17:15:28.308Z,19.60
2018-12-18T17:17:56.486Z,18.63
2018-12-18T17:20:24.726Z,23.10
2018-12-18T17:22:52.923Z,20.17
2018-12-18T17:25:21.298Z,20.80
2018-12-18T17:27:49.473Z,22.17
2018-12-18T17:30:17.649Z,22.20
2018-12-18T17:32:45.834Z,23.07
2018-12-18T17:35:14.353Z,20.33
2018-12-18T17:37:42.609Z,21.07
2018-12-18T17:40:10.855Z,21.37
2018-12-18T17:42:39.102Z,21.77
2018-12-18T17:45:07.993Z,25.93
2018-12-18T17:47:36.160Z,22.30
2018-12-18T17:50:05.705Z,21.33
2018-12-18T17:52:33.891Z,21.73
2018-12-18T17:55:02.070Z,21.57
2018-12-18T17:57:30.348Z,19.00
2018-12-18T17:59:58.559Z,19.77
2018-12-18T18:02:26.738Z,18.83
2018-12-18T18:04:54.963Z,22.13
2018-12-18T18:07:23.225Z,22.33
2018-12-18T18:09:51.576Z,22.73
2018-12-18T18:12:19.754Z,20.47
2018-12-18T18:14:47.939Z,24.77
2018-12-18T18:17:16.117Z,24.03
2018-12-18T18:19:44.340Z,23.23
2018-12-18T18:22:12.577Z,23.70
2018-12-18T18:24:40.751Z,23.87
2018-12-18T18:27:08.923Z,24.40
2018-12-18T18:29:37.337Z,23.00
2018-12-18T18:32:05.526Z,25.87
2018-12-18T18:34:33.714Z,23.03
2018-12-18T18:37:01.897Z,24.57
2018-12-18T18:39:30.094Z,26.03
2018-12-18T18:41:58.429Z,25.53
2018-12-18T18:44:26.626Z,24.10
2018-12-18T18:46:54.789Z,24.20
2018-12-18T18:49:23.055Z,22.67
2018-12-18T18:51:51.214Z,25.80
2018-12-18T18:54:19.655Z,26.53
2018-12-18T18:56:47.820Z,26.77
2018-12-18T18:59:16.018Z,24.57
2018-12-18T19:01:44.273Z,27.10
2018-12-18T19:04:12.484Z,25.90
2018-12-18T19:06:40.712Z,28.03
2018-12-18T19:09:09.039Z,25.63
2018-12-18T19:11:37.240Z,28.10
2018-12-18T19:14:05.591Z,23.97
2018-12-18T19:16:33.745Z,27.97
2018-12-18T19:19:01.951Z,27.63
2018-12-18T19:21:30.112Z,30.13
2018-12-18T19:23:58.302Z,26.70
2018-12-18T19:26:26.511Z,32.47
2018-12-18T19:28:54.721Z,26.33
2018-12-18T19:31:23.765Z,25.03
2018-12-18T19:33:51.968Z,44.47
2018-12-18T19:36:20.254Z,30.30
2018-12-18T19:38:48.435Z,27.63
2018-12-18T19:41:16.689Z,40.07
2018-12-18T19:43:45.955Z,46.13
2018-12-18T19:46:14.489Z,30.23
2018-12-18T19:48:42.857Z,38.50
2018-12-18T19:51:11.011Z,32.93
2018-12-18T19:53:39.173Z,29.13
2018-12-18T19:56:07.447Z,27.30
2018-12-18T19:58:35.696Z,31.97
2018-12-18T20:01:04.015Z,31.63
2018-12-18T20:03:32.553Z,30.07
2018-12-18T20:06:00.726Z,31.00
2018-12-18T20:08:28.906Z,29.20
2018-12-18T20:10:57.056Z,28.57
2018-12-18T20:13:25.237Z,29.73
2018-12-18T20:15:53.430Z,28.00
2018-12-18T20:18:21.614Z,29.53
2018-12-18T20:20:49.788Z,28.90
2018-12-18T20:23:17.961Z,30.97
2018-12-18T20:25:46.394Z,26.93
2018-12-18T20:28:14.565Z,29.07
2018-12-18T20:30:42.733Z,26.93
2018-12-18T20:33:10.913Z,27.37
2018-12-18T20:35:39.125Z,28.27
2018-12-18T20:38:07.438Z,25.70
2018-12-18T20:40:35.630Z,29.27
2018-12-18T20:43:03.917Z,28.70
2018-12-18T20:45:32.125Z,26.73
2018-12-18T20:48:00.326Z,26.50
2018-12-18T20:50:28.499Z,29.53
2018-12-18T20:52:56.661Z,35.03
2018-12-18T20:55:24.892Z,34.03
2018-12-18T20:57:53.078Z,40.00
2018-12-18T21:00:21.278Z,44.07
2018-12-18T21:02:49.460Z,38.60
2018-12-18T21:05:17.869Z,28.70
2018-12-18T21:07:46.644Z,33.80
2018-12-18T21:10:14.977Z,32.43
2018-12-18T21:12:43.275Z,29.33
2018-12-18T21:15:11.608Z,33.90
2018-12-18T21:17:39.970Z,32.30
2018-12-18T21:20:08.786Z,33.10
2018-12-18T21:22:37.099Z,33.20
2018-12-18T21:25:06.429Z,35.20
2018-12-18T21:27:34.726Z,30.07
2018-12-18T21:30:03.065Z,29.83
2018-12-18T21:32:31.393Z,31.77
2018-12-18T21:34:59.733Z,24.97
2018-12-18T21:37:28.175Z,30.20
2018-12-18T21:39:56.520Z,28.97
2018-12-18T21:42:24.904Z,30.17
2018-12-18T21:44:53.603Z,27.43
2018-12-18T21:47:21.922Z,30.43
2018-12-18T21:49:50.312Z,27.07
2018-12-18T21:52:18.661Z,28.47
2018-12-18T21:54:47.010Z,29.53
2018-12-18T21:57:15.415Z,28.77
2018-12-18T21:59:47.069Z,33.97
2018-12-18T22:02:15.405Z,30.30
2018-12-18T22:04:43.819Z,31.97
2018-12-18T22:07:12.228Z,29.87
2018-12-18T22:09:40.574Z,33.53
2018-12-18T22:12:08.994Z,28.00
2018-12-18T22:14:37.451Z,31.33
2018-12-18T22:17:05.850Z,29.53
2018-12-18T22:19:34.165Z,35.17
2018-12-18T22:22:02.574Z,35.37
2018-12-18T22:24:30.933Z,36.77
2018-12-18T22:26:59.161Z,34.57
2018-12-18T22:29:27.444Z,41.03
2018-12-18T22:31:55.638Z,39.03
2018-12-18T22:34:23.845Z,37.63
2018-12-18T22:36:52.134Z,35.73
2018-12-18T22:39:20.351Z,30.73
2018-12-18T22:41:48.569Z,32.83
2018-12-18T22:44:16.806Z,35.03
2018-12-18T22:46:44.992Z,29.97
2018-12-18T22:49:13.202Z,33.00
2018-12-18T22:51:41.417Z,30.00
2018-12-18T22:54:09.658Z,27.47
2018-12-18T22:56:37.910Z,25.10
2018-12-18T22:59:06.153Z,27.33
2018-12-18T23:01:38.247Z,29.57
2018-12-18T23:04:06.634Z,31.17
2018-12-18T23:06:34.834Z,27.10
2018-12-18T23:09:04.049Z,26.73
2018-12-18T23:11:32.275Z,26.73
2018-12-18T23:14:00.601Z,32.57
2018-12-18T23:16:28.946Z,28.00
2018-12-18T23:18:57.178Z,31.17
2018-12-18T23:21:25.391Z,27.70
2018-12-18T23:23:53.626Z,26.23
2018-12-18T23:26:21.850Z,24.83
2018-12-18T23:28:50.148Z,29.43
2018-12-18T23:31:18.602Z,32.23
2018-12-18T23:33:47.150Z,29.63
2018-12-18T23:36:15.346Z,28.50
2018-12-18T23:38:43.575Z,26.57
2018-12-18T23:41:11.759Z,27.13
2018-12-18T23:43:39.969Z,26.87
2018-12-18T23:46:08.173Z,27.50
2018-12-18T23:48:39.716Z,29.90
2018-12-18T23:51:06.815Z,31.67
2018-12-18T23:53:35.428Z,31.67
2018-12-18T23:56:03.697Z,29.83
2018-12-18T23:58:31.922Z,29.77
